Time;durP1;ratioP1;P1;durP2;ratioP2;P2;SDS_P1;SDS_P2;PMS_P1;PMS_P2;Temp;Humidity;BMP_temperature;BMP_pressure;BME280_temperature;BME280_humidity;BME280_pressure;Samples;Min_cycle;Max_cycle;Signal;HPM_P1;HPM_P2
2022/03/10 00:01:13;;;;;;;21.3;23.8;;;;;;;0.8;77.2;99740;;;;
2022/03/10 00:11:12;;;;;;;25.4;32;;;;;;;0.8;77.3;99760;;;;
2022/03/10 00:22:12;;;;;;;25.4;32;;;;;;;0.7;76.9;99770;;;;
2022/03/10 00:32:12;;;;;;;25.4;32;;;;;;;0.7;75.9;99770;;;;
2022/03/10 00:43:12;;;;;;;23.1;29;;;;;;;0.6;76.5;99780;;;;
2022/03/10 00:54:12;;;;;;;23.1;29;;;;;;;0.5;77;99780;;;;
2022/03/10 01:04:12;;;;;;;23.1;29;;;;;;;0.5;76.9;99800;;;;
2022/03/10 01:15:12;;;;;;;23.5;30.7;;;;;;;0.6;77.2;99790;;;;
2022/03/10 01:25:12;;;;;;;23.5;30.7;;;;;;;0.6;77;99790;;;;
2022/03/10 01:36:12;;;;;;;23.5;30.7;;;;;;;0.7;77.1;99800;;;;
2022/03/10 01:46:12;;;;;;;23.1;28;;;;;;;0.6;76.3;99800;;;;
2022/03/10 01:57:12;;;;;;;23.1;28;;;;;;;0.5;74.7;99810;;;;
2022/03/10 02:18:12;;;;;;;19.9;26.1;;;;;;;0.3;75.3;99820;;;;
2022/03/10 02:28:12;;;;;;;19.9;26.1;;;;;;;0.2;74.6;99830;;;;
2022/03/10 02:38:13;;;;;;;16.1;18.4;;;;;;;0.1;74.8;99850;;;;
2022/03/10 02:49:12;;;;;;;16.1;18.4;;;;;;;-0.1;73.9;99870;;;;
2022/03/10 02:59:12;;;;;;;16.1;18.4;;;;;;;-0.2;74.5;99880;;;;
2022/03/10 03:10:12;;;;;;;13.9;16.1;;;;;;;-0.3;75.1;99900;;;;
2022/03/10 03:20:14;;;;;;;13.9;16.1;;;;;;;-0.4;75;99910;;;;
2022/03/10 03:31:12;;;;;;;13.9;16.1;;;;;;;-0.8;74.5;99920;;;;
2022/03/10 03:42:12;;;;;;;11.1;14.5;;;;;;;-1.1;75.6;99940;;;;
2022/03/10 03:52:12;;;;;;;11.1;14.5;;;;;;;-1.4;76.4;99950;;;;
2022/03/10 04:03:12;;;;;;;11.1;14.5;;;;;;;-1.6;76.2;99970;;;;
2022/03/10 04:14:13;;;;;;;9.8;13.4;;;;;;;-1.7;76.3;99990;;;;
2022/03/10 04:25:12;;;;;;;9.8;13.4;;;;;;;-1.8;76.4;100000;;;;
2022/03/10 04:35:12;;;;;;;9.8;13.4;;;;;;;-1.8;76.1;100010;;;;
2022/03/10 04:45:12;;;;;;;10.4;15.1;;;;;;;-2;75.2;100030;;;;
2022/03/10 04:56:12;;;;;;;10.4;15.1;;;;;;;-2.1;75.3;100040;;;;
2022/03/10 05:06:12;;;;;;;10.4;15.1;;;;;;;-2.3;74.7;100060;;;;
2022/03/10 05:17:12;;;;;;;9.1;13.7;;;;;;;-2.5;75.1;100070;;;;
2022/03/10 05:27:12;;;;;;;9.1;13.7;;;;;;;-2.5;75.6;100090;;;;
2022/03/10 05:37:12;;;;;;;9.1;13.7;;;;;;;-2.6;75.7;100100;;;;
2022/03/10 05:48:12;;;;;;;9.3;12.3;;;;;;;-2.6;76.3;100120;;;;
2022/03/10 05:59:12;;;;;;;9.3;12.3;;;;;;;-2.4;74.7;100120;;;;
2022/03/10 06:09:12;;;;;;;9.4;14.2;;;;;;;-2.7;73.3;100140;;;;
2022/03/10 06:20:12;;;;;;;9.4;14.2;;;;;;;-2.5;72;100160;;;;
2022/03/10 06:30:12;;;;;;;9.4;14.2;;;;;;;-2.6;69.8;100180;;;;
2022/03/10 06:40:12;;;;;;;8.2;13.8;;;;;;;-2.4;68.1;100190;;;;
2022/03/10 06:50:12;;;;;;;8.2;13.8;;;;;;;-2.4;66;100210;;;;
2022/03/10 07:01:12;;;;;;;8.2;13.8;;;;;;;-2.3;65;100220;;;;
2022/03/10 07:12:12;;;;;;;6.5;11.1;;;;;;;-2.1;64.4;100230;;;;
2022/03/10 07:22:12;;;;;;;6.5;11.1;;;;;;;-2.1;62.8;100250;;;;
2022/03/10 07:33:12;;;;;;;6.5;11.1;;;;;;;-1.8;62.4;100260;;;;
2022/03/10 07:43:12;;;;;;;6.2;9.6;;;;;;;-1.5;61;100260;;;;
2022/03/10 07:53:12;;;;;;;6.2;9.6;;;;;;;-1.3;59.7;100280;;;;
2022/03/10 08:04:12;;;;;;;6.2;9.6;;;;;;;-1.4;58.8;100280;;;;
2022/03/10 08:15:12;;;;;;;6.1;9.3;;;;;;;-1.3;57.7;100290;;;;
2022/03/10 08:25:12;;;;;;;6.1;9.3;;;;;;;-0.9;55.9;100280;;;;
2022/03/10 08:35:12;;;;;;;6.1;9.3;;;;;;;-0.6;55.1;100290;;;;
2022/03/10 08:46:12;;;;;;;7.6;11.8;;;;;;;-0.6;55.6;100280;;;;
2022/03/10 08:56:12;;;;;;;7.6;11.8;;;;;;;0.4;54;100290;;;;
2022/03/10 09:07:12;;;;;;;165.2;192.6;;;;;;;0.9;52.1;100290;;;;
2022/03/10 09:11:27;;;;;;;165.2;192.6;;;;;;;0.6;50.8;100300;;;;
2022/03/10 09:21:27;;;;;;;165.2;192.6;;;;;;;0.5;50.6;100300;;;;
2022/03/10 09:32:27;;;;;;;165.2;192.6;;;;;;;0.7;49.2;100310;;;;
2022/03/10 09:43:27;;;;;;;45.7;51.5;;;;;;;0.6;49.2;100310;;;;
2022/03/10 09:53:30;;;;;;;45.7;51.5;;;;;;;1.1;48.7;100310;;;;
2022/03/10 10:03:27;;;;;;;45.7;51.5;;;;;;;0.7;49;100320;;;;
2022/03/10 10:13:27;;;;;;;5.1;7.3;;;;;;;0.7;48.2;100330;;;;
2022/03/10 10:23:27;;;;;;;5.1;7.3;;;;;;;0.9;48.5;100340;;;;
2022/03/10 10:33:27;;;;;;;5.1;7.3;;;;;;;1;48.2;100350;;;;
2022/03/10 10:43:27;;;;;;;4.6;7.4;;;;;;;0.9;49.1;100340;;;;
2022/03/10 10:53:27;;;;;;;4.6;7.4;;;;;;;1.1;48.2;100350;;;;
2022/03/10 11:04:27;;;;;;;4.6;7.4;;;;;;;0.7;47.2;100350;;;;
2022/03/10 11:14:27;;;;;;;5.5;8.5;;;;;;;0.9;48;100360;;;;
2022/03/10 11:25:27;;;;;;;5.5;8.5;;;;;;;0.3;47.3;100350;;;;
2022/03/10 11:35:27;;;;;;;5.5;8.5;;;;;;;0.7;47.9;100350;;;;
2022/03/10 11:45:27;;;;;;;5;7.9;;;;;;;0.6;47.5;100360;;;;
2022/03/10 11:55:27;;;;;;;5;7.9;;;;;;;1.2;46.7;100360;;;;
2022/03/10 12:05:27;;;;;;;5;7.9;;;;;;;1;44.3;100350;;;;
2022/03/10 12:16:27;;;;;;;4.2;6.8;;;;;;;1.2;44.8;100350;;;;
2022/03/10 12:26:27;;;;;;;4.2;6.8;;;;;;;1.6;43.5;100340;;;;
2022/03/10 12:37:27;;;;;;;4.4;6.4;;;;;;;2.1;42.7;100340;;;;
2022/03/10 12:48:27;;;;;;;4.4;6.4;;;;;;;1.6;42.9;100350;;;;
2022/03/10 12:59:27;;;;;;;4.4;6.4;;;;;;;1.9;42.6;100350;;;;
2022/03/10 13:09:27;;;;;;;4.6;7.4;;;;;;;1.8;42.7;100340;;;;
2022/03/10 13:20:27;;;;;;;4.6;7.4;;;;;;;1.9;42.3;100340;;;;
2022/03/10 13:31:27;;;;;;;4.6;7.4;;;;;;;1.6;42;100340;;;;
2022/03/10 13:41:27;;;;;;;11.5;17;;;;;;;1.6;42.4;100330;;;;
2022/03/10 13:52:28;;;;;;;11.5;17;;;;;;;1.5;43.1;100320;;;;
2022/03/10 14:02:27;;;;;;;11.5;17;;;;;;;1.7;43.3;100320;;;;
2022/03/10 14:12:27;;;;;;;7.1;10.9;;;;;;;2;42.9;100310;;;;
2022/03/10 14:23:27;;;;;;;7.1;10.9;;;;;;;1.6;42.1;100320;;;;
2022/03/10 14:34:27;;;;;;;7.1;10.9;;;;;;;1.7;42.7;100320;;;;
2022/03/10 14:44:27;;;;;;;21.3;26.3;;;;;;;1.3;43.4;100320;;;;
2022/03/10 14:54:27;;;;;;;21.3;26.3;;;;;;;1.5;43.2;100320;;;;
2022/03/10 15:04:27;;;;;;;21.3;26.3;;;;;;;1.2;42.9;100320;;;;
2022/03/10 15:14:27;;;;;;;9.1;12.6;;;;;;;1.2;43.6;100320;;;;
2022/03/10 15:25:27;;;;;;;9.1;12.6;;;;;;;0.9;44.8;100320;;;;
2022/03/10 15:35:28;;;;;;;36.1;50.6;;;;;;;0.8;46.3;100330;;;;
2022/03/10 15:46:27;;;;;;;36.1;50.6;;;;;;;1;44.5;100340;;;;
2022/03/10 15:56:27;;;;;;;36.1;50.6;;;;;;;0.8;44.8;100350;;;;
2022/03/10 16:06:27;;;;;;;10.8;15.5;;;;;;;0.1;46.7;100360;;;;
2022/03/10 16:16:27;;;;;;;10.8;15.5;;;;;;;-0.3;48.1;100360;;;;
2022/03/10 16:26:27;;;;;;;10.8;15.5;;;;;;;-0.7;49;100380;;;;
2022/03/10 16:36:28;;;;;;;27.5;33.4;;;;;;;-1;49.5;100390;;;;
2022/03/10 16:47:27;;;;;;;27.5;33.4;;;;;;;-1.4;50.4;100390;;;;
2022/03/10 16:58:29;;;;;;;27.5;33.4;;;;;;;-1.6;51.5;100400;;;;
2022/03/10 17:08:27;;;;;;;17.4;25.1;;;;;;;-1.8;51.9;100400;;;;
2022/03/10 17:19:27;;;;;;;17.4;25.1;;;;;;;-2;52.8;100410;;;;
2022/03/10 17:29:27;;;;;;;17.4;25.1;;;;;;;-2.2;53.2;100420;;;;
2022/03/10 17:39:27;;;;;;;10.2;14;;;;;;;-2.3;53.8;100430;;;;
2022/03/10 17:50:27;;;;;;;10.2;14;;;;;;;-2.5;54.4;100440;;;;
2022/03/10 18:01:27;;;;;;;10.2;14;;;;;;;-2.6;54.9;100440;;;;
2022/03/10 18:12:27;;;;;;;12.2;19.8;;;;;;;-2.7;54.9;100440;;;;
2022/03/10 18:22:28;;;;;;;12.2;19.8;;;;;;;-2.8;55.4;100450;;;;
2022/03/10 18:33:27;;;;;;;12.2;19.8;;;;;;;-2.8;56.1;100450;;;;
2022/03/10 18:43:27;;;;;;;13.5;19.9;;;;;;;-3;56.6;100460;;;;
2022/03/10 18:54:27;;;;;;;13.5;19.9;;;;;;;-3;57.1;100460;;;;
2022/03/10 19:04:27;;;;;;;16.3;21.9;;;;;;;-3.1;57.2;100470;;;;
2022/03/10 19:14:28;;;;;;;16.3;21.9;;;;;;;-3.2;57.7;100470;;;;
2022/03/10 19:25:27;;;;;;;16.3;21.9;;;;;;;-3.3;58.3;100480;;;;
2022/03/10 19:35:27;;;;;;;12.4;17.6;;;;;;;-3.4;58.6;100480;;;;
2022/03/10 19:45:27;;;;;;;12.4;17.6;;;;;;;-3.5;58.8;100490;;;;
2022/03/10 19:55:27;;;;;;;12.4;17.6;;;;;;;-3.6;58.9;100490;;;;
2022/03/10 20:06:27;;;;;;;10.8;15.7;;;;;;;-3.7;59.1;100490;;;;
2022/03/10 20:16:27;;;;;;;10.8;15.7;;;;;;;-3.8;59.5;100490;;;;
2022/03/10 20:27:28;;;;;;;10.8;15.7;;;;;;;-4;60.1;100480;;;;
2022/03/10 20:37:27;;;;;;;11.3;19.4;;;;;;;-4;60.4;100480;;;;
2022/03/10 20:47:27;;;;;;;11.3;19.4;;;;;;;-4.1;60.8;100490;;;;
2022/03/10 20:58:27;;;;;;;11.3;19.4;;;;;;;-4.2;60.9;100490;;;;
2022/03/10 21:09:27;;;;;;;12.1;21.6;;;;;;;-4.4;61.3;100490;;;;
2022/03/10 21:19:27;;;;;;;12.1;21.6;;;;;;;-4.5;61.9;100490;;;;
2022/03/10 21:30:27;;;;;;;12.1;21.6;;;;;;;-4.6;62.2;100490;;;;
2022/03/10 21:40:27;;;;;;;10.5;17.3;;;;;;;-4.7;62.7;100490;;;;
2022/03/10 21:51:27;;;;;;;10.5;17.3;;;;;;;-4.6;63.3;100490;;;;
2022/03/10 22:01:27;;;;;;;10.5;17.3;;;;;;;-4.8;63.5;100490;;;;
2022/03/10 22:12:27;;;;;;;11.7;21.4;;;;;;;-5;64.5;100500;;;;
2022/03/10 22:22:27;;;;;;;11.7;21.4;;;;;;;-5.3;64.5;100490;;;;
2022/03/10 22:32:29;;;;;;;11.7;21.4;;;;;;;-5.4;65.5;100490;;;;
2022/03/10 22:43:27;;;;;;;16.3;30.3;;;;;;;-5.5;65.6;100490;;;;
2022/03/10 22:54:31;;;;;;;16.3;30.3;;;;;;;-5.6;65.5;100490;;;;
2022/03/10 23:15:27;;;;;;;17.5;31;;;;;;;-5.8;66.6;100500;;;;
2022/03/10 23:26:27;;;;;;;17.5;31;;;;;;;-5.8;67;100500;;;;
2022/03/10 23:37:27;;;;;;;11.6;20.1;;;;;;;-5.8;66.8;100490;;;;
2022/03/10 23:48:27;;;;;;;11.6;20.1;;;;;;;-5.9;66.9;100490;;;;
2022/03/10 23:59:27;;;;;;;;;;;;;;;;;;;;;
